Time;durP1;ratioP1;P1;durP2;ratioP2;P2;SDS_P1;SDS_P2;PMS_P1;PMS_P2;Temp;Humidity;BMP_temperature;BMP_pressure;BME280_temperature;BME280_humidity;BME280_pressure;Samples;Min_cycle;Max_cycle;Signal;HPM_P1;HPM_P2
2023/01/24 00:01:02;;;;;;;1999.90;999.90;;;3.70;99.90;;;;;;5007578;28;20446;-64
2023/01/24 00:03:30;;;;;;;1999.90;999.90;;;3.70;99.90;;;;;;5007840;28;20461;-62
2023/01/24 00:05:57;;;;;;;1999.90;999.90;;;3.70;99.90;;;;;;5008557;28;20450;-63
2023/01/24 00:08:23;;;;;;;1999.90;999.90;;;3.70;99.90;;;;;;5009428;28;20453;-66
2023/01/24 00:10:58;;;;;;;1999.90;999.90;;;3.70;99.90;;;;;;5008832;28;20454;-65
2023/01/24 00:13:25;;;;;;;1999.90;999.90;;;3.70;99.90;;;;;;5008959;28;20488;-67
2023/01/24 00:15:51;;;;;;;1999.90;999.90;;;3.70;99.90;;;;;;5010046;28;20446;-65
2023/01/24 00:18:18;;;;;;;1999.90;999.90;;;3.70;99.90;;;;;;5010076;28;20450;-64
2023/01/24 00:20:46;;;;;;;1999.90;999.90;;;3.70;99.90;;;;;;5010546;28;20817;-65
2023/01/24 00:23:13;;;;;;;1999.90;999.90;;;3.70;99.90;;;;;;5009767;28;20952;-65
2023/01/24 00:25:40;;;;;;;1999.90;999.90;;;3.60;99.90;;;;;;5010407;28;20481;-64
2023/01/24 00:28:06;;;;;;;1999.90;999.90;;;3.60;99.90;;;;;;5010155;28;20446;-64
2023/01/24 00:30:33;;;;;;;1999.90;999.90;;;3.60;99.90;;;;;;5010307;28;20928;-65
2023/01/24 00:33:00;;;;;;;1999.90;999.90;;;3.60;99.90;;;;;;5010000;28;20497;-64
2023/01/24 00:35:26;;;;;;;1999.90;999.90;;;3.60;99.90;;;;;;5010310;28;20476;-65
2023/01/24 00:37:54;;;;;;;1999.90;999.90;;;3.60;99.90;;;;;;5009714;28;20819;-65
2023/01/24 00:40:21;;;;;;;1999.90;999.90;;;3.60;99.90;;;;;;5010275;28;20449;-65
2023/01/24 00:42:48;;;;;;;1999.90;999.90;;;3.70;99.90;;;;;;5009603;28;20442;-65
2023/01/24 00:45:15;;;;;;;1999.90;999.90;;;3.70;99.90;;;;;;5010409;28;20473;-65
2023/01/24 00:47:42;;;;;;;1999.90;999.90;;;3.70;99.90;;;;;;5010185;28;20458;-65
2023/01/24 00:50:10;;;;;;;1999.90;999.90;;;3.80;99.90;;;;;;5015839;28;20445;-65
2023/01/24 00:52:36;;;;;;;1999.90;999.90;;;3.80;99.90;;;;;;5029510;28;20480;-65
2023/01/24 00:55:05;;;;;;;1999.90;999.90;;;3.80;99.90;;;;;;5029678;28;20479;-65
2023/01/24 00:57:32;;;;;;;1999.90;999.90;;;3.80;99.90;;;;;;5030234;28;20826;-65
2023/01/24 00:59:59;;;;;;;1999.90;999.90;;;3.80;99.90;;;;;;5029617;28;20441;-64
2023/01/24 01:02:26;;;;;;;1999.90;999.90;;;3.80;99.90;;;;;;5029573;28;20460;-65
2023/01/24 01:04:53;;;;;;;1999.90;999.90;;;3.80;99.90;;;;;;5029257;28;20469;-65
2023/01/24 01:07:20;;;;;;;1999.90;999.90;;;3.80;99.90;;;;;;5029473;28;20444;-65
2023/01/24 01:09:47;;;;;;;1999.90;999.90;;;3.80;99.90;;;;;;5029641;28;20468;-66
2023/01/24 01:12:15;;;;;;;1999.90;999.90;;;3.70;99.90;;;;;;5029251;28;20602;-66
2023/01/24 01:14:42;;;;;;;1999.90;999.90;;;3.70;99.90;;;;;;5029169;28;20472;-65
2023/01/24 01:17:09;;;;;;;1999.90;999.90;;;3.70;99.90;;;;;;5029109;28;20453;-66
2023/01/24 01:19:35;;;;;;;1999.90;999.90;;;3.70;99.90;;;;;;5029543;28;20457;-65
2023/01/24 01:22:02;;;;;;;1999.90;999.90;;;3.80;99.90;;;;;;5029158;28;20460;-65
2023/01/24 01:24:29;;;;;;;1999.90;999.90;;;3.80;99.90;;;;;;5028973;28;20476;-66
2023/01/24 01:26:55;;;;;;;1999.90;999.90;;;3.80;99.90;;;;;;5028996;28;20449;-66
2023/01/24 01:29:24;;;;;;;1999.90;999.90;;;3.70;99.90;;;;;;5029582;28;20445;-65
2023/01/24 01:31:50;;;;;;;1999.90;999.90;;;3.70;99.90;;;;;;5029295;28;20453;-65
2023/01/24 01:34:17;;;;;;;1999.90;999.90;;;3.70;99.90;;;;;;5028646;28;20516;-63
2023/01/24 01:36:44;;;;;;;1999.90;999.90;;;3.70;99.90;;;;;;5028938;28;20455;-65
2023/01/24 01:39:11;;;;;;;1999.90;999.90;;;3.70;99.90;;;;;;5019226;28;21174;-65
2023/01/24 01:41:38;;;;;;;1999.90;999.90;;;3.70;99.90;;;;;;5009620;28;20460;-65
2023/01/24 01:44:40;;;;;;;1999.90;999.90;;;3.60;99.90;;;;;;5008886;28;20465;-65
2023/01/24 01:47:29;;;;;;;1999.90;999.90;;;3.60;99.90;;;;;;5009435;28;20445;-65
2023/01/24 01:50:02;;;;;;;1999.90;999.90;;;3.70;99.90;;;;;;5009851;28;20448;-66
2023/01/24 01:52:33;;;;;;;1999.90;999.90;;;3.70;99.90;;;;;;5013064;28;20879;-65
2023/01/24 01:55:03;;;;;;;1999.90;999.90;;;3.70;99.90;;;;;;5013172;28;20582;-65
2023/01/24 01:57:32;;;;;;;1999.90;999.90;;;3.80;99.90;;;;;;5013763;28;20453;-67
2023/01/24 02:00:05;;;;;;;1999.90;999.90;;;3.80;99.90;;;;;;5012979;28;20456;-65
2023/01/24 02:02:33;;;;;;;1999.90;999.90;;;3.70;99.90;;;;;;5013077;28;20446;-65
2023/01/24 02:05:02;;;;;;;1999.90;999.90;;;3.70;99.90;;;;;;5013118;28;20476;-66
2023/01/24 02:07:35;;;;;;;1999.90;999.90;;;3.70;99.90;;;;;;5013145;28;20450;-65
2023/01/24 02:10:03;;;;;;;1999.90;999.90;;;3.70;99.90;;;;;;5012936;28;20461;-65
2023/01/24 02:12:33;;;;;;;1999.90;999.90;;;3.70;99.90;;;;;;5012794;28;21120;-65
2023/01/24 02:17:50;;;;;;;1999.90;999.90;;;3.60;99.90;;;;;;5013163;28;20504;-67
2023/01/24 02:20:33;;;;;;;1999.90;999.90;;;3.60;99.90;;;;;;5012563;28;20453;-66
2023/01/24 02:23:12;;;;;;;1999.90;999.90;;;3.70;99.90;;;;;;5012713;28;20430;-67
2023/01/24 02:25:45;;;;;;;1999.90;999.90;;;3.60;99.90;;;;;;5012624;28;20551;-65
2023/01/24 02:28:13;;;;;;;1999.90;999.90;;;3.60;99.90;;;;;;5012846;28;20445;-65
2023/01/24 02:30:40;;;;;;;1999.90;999.90;;;3.60;99.90;;;;;;5012548;28;20460;-66
2023/01/24 02:33:11;;;;;;;1999.90;999.90;;;3.60;99.90;;;;;;5012076;28;20492;-66
2023/01/24 02:35:38;;;;;;;1999.90;999.90;;;3.50;99.90;;;;;;5012381;28;20462;-66
2023/01/24 02:38:12;;;;;;;1999.90;999.90;;;3.50;99.90;;;;;;5012362;28;20464;-66
2023/01/24 02:40:39;;;;;;;1999.90;999.90;;;3.50;99.90;;;;;;5012591;28;20456;-66
2023/01/24 02:43:07;;;;;;;1999.90;999.90;;;3.50;99.90;;;;;;5011973;28;20445;-65
2023/01/24 02:45:35;;;;;;;1999.90;999.90;;;3.60;99.90;;;;;;5012536;28;20461;-65
2023/01/24 02:48:02;;;;;;;1999.90;999.90;;;3.60;99.90;;;;;;5012722;28;20473;-65
2023/01/24 02:53:28;;;;;;;1999.90;999.90;;;3.60;99.90;;;;;;5012696;28;20456;-66
2023/01/24 02:53:29;;;;;;;1999.90;999.90;;;3.60;99.90;;;;;;5011742;28;20513;-64
2023/01/24 02:58:41;;;;;;;1999.90;999.90;;;3.50;99.90;;;;;;5012133;28;20429;-66
2023/01/24 03:01:09;;;;;;;1999.90;999.90;;;3.50;99.90;;;;;;5012083;28;20457;-65
2023/01/24 03:03:36;;;;;;;1999.90;999.90;;;3.50;99.90;;;;;;5011641;28;20477;-65
2023/01/24 03:06:03;;;;;;;1999.90;999.90;;;3.50;99.90;;;;;;5012057;28;20461;-65
2023/01/24 03:08:32;;;;;;;1999.90;999.90;;;3.50;99.90;;;;;;5011724;28;20454;-66
2023/01/24 03:10:59;;;;;;;1999.90;999.90;;;3.50;99.90;;;;;;5012126;28;20457;-65
2023/01/24 03:35:24;;;;;;;1999.90;999.90;;;3.40;99.90;;;;;;5031137;28;20814;-65
2023/01/24 03:40:36;;;;;;;1999.90;999.90;;;3.40;99.90;;;;;;5031175;28;20424;-64
2023/01/24 03:43:03;;;;;;;1999.90;999.90;;;3.40;99.90;;;;;;5030594;28;20452;-65
2023/01/24 03:45:32;;;;;;;1999.90;999.90;;;3.40;99.90;;;;;;5030930;28;20465;-65
2023/01/24 03:48:02;;;;;;;1999.90;999.90;;;3.40;99.90;;;;;;5030839;28;20440;-66
2023/01/24 03:53:17;;;;;;;1999.90;999.90;;;3.40;99.90;;;;;;5030424;28;20552;-65
2023/01/24 03:55:44;;;;;;;1999.90;999.90;;;3.40;99.90;;;;;;5030274;28;20441;-66
2023/01/24 03:58:12;;;;;;;1999.90;999.90;;;3.40;99.90;;;;;;5030652;28;20818;-66
2023/01/24 04:00:39;;;;;;;1999.90;999.90;;;3.50;99.90;;;;;;5030732;28;20451;-66
2023/01/24 04:03:07;;;;;;;1999.90;999.90;;;3.50;99.90;;;;;;5030313;28;20516;-65
2023/01/24 04:05:34;;;;;;;1999.90;999.90;;;3.50;99.90;;;;;;5030740;28;20484;-66
2023/01/24 04:08:01;;;;;;;1999.90;999.90;;;3.40;99.90;;;;;;5030595;28;20441;-66
2023/01/24 04:10:28;;;;;;;1999.90;999.90;;;3.40;99.90;;;;;;5030404;28;20942;-66
2023/01/24 04:12:55;;;;;;;1999.90;999.90;;;3.40;99.90;;;;;;5029436;28;20484;-66
2023/01/24 04:15:23;;;;;;;1999.90;999.90;;;3.40;99.90;;;;;;5029949;28;20469;-66
2023/01/24 04:17:50;;;;;;;1999.90;999.90;;;3.40;99.90;;;;;;5030229;28;20978;-66
2023/01/24 04:20:19;;;;;;;1999.90;999.90;;;3.40;99.90;;;;;;5030209;28;20456;-66
2023/01/24 04:22:46;;;;;;;1999.90;999.90;;;3.40;99.90;;;;;;5030010;28;20441;-65
2023/01/24 04:25:13;;;;;;;1999.90;999.90;;;3.40;99.90;;;;;;5030107;28;20492;-66
2023/01/24 04:27:39;;;;;;;1999.90;999.90;;;3.40;99.90;;;;;;5030166;28;20875;-66
2023/01/24 04:30:09;;;;;;;1999.90;999.90;;;3.40;99.90;;;;;;5029863;28;20445;-65
2023/01/24 04:32:36;;;;;;;1999.90;999.90;;;3.40;99.90;;;;;;5029914;28;20441;-66
2023/01/24 04:35:03;;;;;;;1999.90;999.90;;;3.40;99.90;;;;;;5030008;28;20484;-66
2023/01/24 04:37:32;;;;;;;1999.90;999.90;;;3.40;99.90;;;;;;5030180;28;20510;-66
2023/01/24 04:40:00;;;;;;;1999.90;999.90;;;3.40;99.90;;;;;;5030320;28;20448;-66
2023/01/24 04:42:27;;;;;;;1999.90;999.90;;;3.40;99.90;;;;;;5029573;28;20503;-65
2023/01/24 04:44:54;;;;;;;1999.90;999.90;;;3.40;99.90;;;;;;5030029;28;21169;-67
2023/01/24 04:47:20;;;;;;;1999.90;999.90;;;3.40;99.90;;;;;;5029922;28;20459;-66
2023/01/24 04:49:47;;;;;;;1999.90;999.90;;;3.40;99.90;;;;;;5030314;28;20445;-64
2023/01/24 04:52:15;;;;;;;1999.90;999.90;;;3.40;99.90;;;;;;5029738;28;20449;-67
2023/01/24 04:54:43;;;;;;;1999.90;999.90;;;3.40;99.90;;;;;;5029616;28;20485;-65
2023/01/24 04:57:12;;;;;;;1999.90;999.90;;;3.40;99.90;;;;;;5029913;28;20483;-65
2023/01/24 04:59:39;;;;;;;1999.90;999.90;;;3.40;99.90;;;;;;5030275;28;20453;-66
2023/01/24 05:02:07;;;;;;;1999.90;999.90;;;3.40;99.90;;;;;;5029588;28;20445;-65
2023/01/24 05:04:33;;;;;;;1999.90;999.90;;;3.40;99.90;;;;;;5029189;28;20461;-65
2023/01/24 05:07:00;;;;;;;1999.90;999.90;;;3.40;99.90;;;;;;5029611;28;20456;-65
2023/01/24 05:09:27;;;;;;;1999.90;999.90;;;3.30;99.90;;;;;;5029155;28;20815;-66
2023/01/24 05:11:55;;;;;;;1999.90;999.90;;;3.30;99.90;;;;;;5029369;28;21146;-64
2023/01/24 05:14:22;;;;;;;1999.90;999.90;;;3.30;99.90;;;;;;5028915;28;20491;-66
2023/01/24 05:16:48;;;;;;;1999.90;999.90;;;3.30;99.90;;;;;;5029468;28;20467;-66
2023/01/24 05:19:15;;;;;;;1999.90;999.90;;;3.20;99.90;;;;;;5028918;28;20475;-64
2023/01/24 05:21:42;;;;;;;1999.90;999.90;;;3.20;99.90;;;;;;5029202;28;20543;-66
2023/01/24 05:24:09;;;;;;;1999.90;999.90;;;3.20;99.90;;;;;;5028533;28;20985;-66
2023/01/24 05:26:36;;;;;;;1999.90;999.90;;;3.20;99.90;;;;;;5029218;28;20453;-65
2023/01/24 05:29:04;;;;;;;1999.90;999.90;;;3.20;99.90;;;;;;5029429;28;20476;-65
2023/01/24 05:31:31;;;;;;;1999.90;999.90;;;3.10;99.90;;;;;;5029307;28;20651;-66
2023/01/24 05:33:57;;;;;;;1999.90;999.90;;;3.10;99.90;;;;;;5028785;28;20488;-68
2023/01/24 05:36:25;;;;;;;1999.90;999.90;;;3.10;99.90;;;;;;5028964;28;20445;-65
2023/01/24 05:38:52;;;;;;;1999.90;999.90;;;3.10;99.90;;;;;;5029240;28;20901;-65
2023/01/24 05:41:20;;;;;;;1999.90;999.90;;;3.20;99.90;;;;;;5029026;28;20452;-65
2023/01/24 05:43:47;;;;;;;1999.90;999.90;;;3.20;99.90;;;;;;5028740;28;20468;-66
2023/01/24 05:46:17;;;;;;;1999.90;999.90;;;3.20;99.90;;;;;;5029019;28;20449;-65
2023/01/24 05:48:44;;;;;;;1999.90;999.90;;;3.20;99.90;;;;;;5029371;28;20452;-66
2023/01/24 05:51:14;;;;;;;1999.90;999.90;;;3.20;99.90;;;;;;5028882;28;20449;-66
2023/01/24 05:53:42;;;;;;;1999.90;999.90;;;3.20;99.90;;;;;;5028534;28;20488;-65
2023/01/24 05:56:13;;;;;;;1999.90;999.90;;;3.20;99.90;;;;;;5029042;28;20449;-65
2023/01/24 05:58:40;;;;;;;1999.90;999.90;;;3.30;99.90;;;;;;5028712;28;21116;-66
2023/01/24 06:01:08;;;;;;;1999.90;999.90;;;3.30;99.90;;;;;;5026927;28;20954;-67
2023/01/24 06:03:38;;;;;;;1999.90;999.90;;;3.30;99.90;;;;;;5006603;28;21006;-66
2023/01/24 06:06:05;;;;;;;1999.90;999.90;;;3.30;99.90;;;;;;5008941;28;21267;-66
2023/01/24 06:08:32;;;;;;;1999.90;999.90;;;3.40;99.90;;;;;;5009161;28;20446;-66
2023/01/24 06:11:04;;;;;;;1999.90;999.90;;;3.40;99.90;;;;;;5008894;28;20493;-66
2023/01/24 06:13:31;;;;;;;1999.90;999.90;;;3.40;99.90;;;;;;5008501;28;20454;-64
2023/01/24 06:16:06;;;;;;;1999.90;999.90;;;3.40;99.90;;;;;;5008916;28;20449;-66
2023/01/24 06:18:34;;;;;;;1999.90;999.90;;;3.40;99.90;;;;;;5009066;28;20507;-66
2023/01/24 06:21:08;;;;;;;1999.90;999.90;;;3.40;99.90;;;;;;5009048;28;20450;-67
2023/01/24 06:23:35;;;;;;;1999.90;999.90;;;3.30;99.90;;;;;;5008750;28;20472;-67
2023/01/24 06:26:03;;;;;;;1999.90;999.90;;;3.30;99.90;;;;;;5009037;28;20441;-65
2023/01/24 06:28:30;;;;;;;1999.90;999.90;;;3.30;99.90;;;;;;5006987;28;20454;-66
2023/01/24 06:31:04;;;;;;;1999.90;999.90;;;3.20;99.90;;;;;;5008287;28;20939;-67
2023/01/24 06:33:41;;;;;;;1999.90;999.90;;;3.20;99.90;;;;;;5008738;28;20461;-66
2023/01/24 06:36:22;;;;;;;1999.90;999.90;;;3.20;99.90;;;;;;5016392;28;20453;-66
2023/01/24 06:38:49;;;;;;;1999.90;999.90;;;3.20;99.90;;;;;;5012565;28;20829;-66
2023/01/24 06:41:18;;;;;;;1999.90;999.90;;;3.20;99.90;;;;;;5012457;28;20449;-67
2023/01/24 06:43:46;;;;;;;1999.90;999.90;;;3.20;99.90;;;;;;5012609;28;20508;-66
2023/01/24 06:46:14;;;;;;;1999.90;999.90;;;3.20;99.90;;;;;;5012349;28;20457;-66
2023/01/24 06:48:44;;;;;;;1999.90;999.90;;;3.20;99.90;;;;;;5012502;28;20450;-66
2023/01/24 06:51:14;;;;;;;1999.90;999.90;;;3.30;99.90;;;;;;5012638;28;20457;-67
2023/01/24 06:53:41;;;;;;;1999.90;999.90;;;3.20;99.90;;;;;;5012008;28;20470;-65
2023/01/24 06:56:09;;;;;;;1999.90;999.90;;;3.20;99.90;;;;;;5012295;28;20458;-66
2023/01/24 06:58:36;;;;;;;1999.90;999.90;;;3.20;99.90;;;;;;5011913;28;20450;-67
2023/01/24 07:01:03;;;;;;;1999.90;999.90;;;3.20;99.90;;;;;;5011979;28;20452;-66
2023/01/24 07:03:30;;;;;;;1999.90;999.90;;;3.20;99.90;;;;;;5011669;28;20979;-67
2023/01/24 07:05:56;;;;;;;1999.90;999.90;;;3.20;99.90;;;;;;5012080;28;20817;-66
2023/01/24 07:08:25;;;;;;;1999.90;999.90;;;3.20;99.90;;;;;;5012070;28;20472;-66
2023/01/24 07:10:52;;;;;;;1999.90;999.90;;;3.20;99.90;;;;;;5011961;28;20464;-70
2023/01/24 07:13:19;;;;;;;1999.90;999.90;;;3.20;99.90;;;;;;5011434;28;20477;-67
2023/01/24 07:15:45;;;;;;;1999.90;999.90;;;3.20;99.90;;;;;;5011499;28;21007;-66
2023/01/24 07:18:14;;;;;;;1999.90;999.90;;;3.20;99.90;;;;;;5011743;28;20442;-67
2023/01/24 07:20:41;;;;;;;1999.90;999.90;;;3.20;99.90;;;;;;5011542;28;20811;-64
2023/01/24 07:23:20;;;;;;;1999.90;999.90;;;3.20;99.90;;;;;;5011411;28;20835;-66
2023/01/24 07:25:50;;;;;;;1999.90;999.90;;;3.20;99.90;;;;;;5011624;28;20445;-66
2023/01/24 07:28:17;;;;;;;1999.90;999.90;;;3.20;99.90;;;;;;5011372;28;20457;-67
2023/01/24 07:30:44;;;;;;;1999.90;999.90;;;3.20;99.90;;;;;;5009332;28;20446;-65
2023/01/24 07:33:12;;;;;;;1999.90;999.90;;;3.30;99.90;;;;;;5009663;28;20531;-66
2023/01/24 07:35:39;;;;;;;1999.90;999.90;;;3.30;99.90;;;;;;5010795;28;20489;-66
2023/01/24 07:38:06;;;;;;;1999.90;999.90;;;3.30;99.90;;;;;;5009292;28;20456;-66
2023/01/24 07:40:33;;;;;;;1999.90;999.90;;;3.30;99.90;;;;;;5011315;28;20450;-66
2023/01/24 07:43:01;;;;;;;1999.90;999.90;;;3.30;99.90;;;;;;5010775;28;20450;-66
2023/01/24 07:45:29;;;;;;;1999.90;999.90;;;3.30;99.90;;;;;;5010885;28;20553;-66
2023/01/24 07:47:56;;;;;;;1999.90;999.90;;;3.40;99.90;;;;;;5009382;28;20454;-67
2023/01/24 07:50:23;;;;;;;1999.90;999.90;;;3.40;99.90;;;;;;5010341;28;20476;-63
2023/01/24 07:52:52;;;;;;;1999.90;999.90;;;3.40;99.90;;;;;;5005446;28;20469;-66
2023/01/24 07:55:19;;;;;;;1999.90;999.90;;;3.40;99.90;;;;;;5008410;28;20556;-67
2023/01/24 07:57:45;;;;;;;1999.90;999.90;;;3.40;99.90;;;;;;5009971;28;20476;-66
2023/01/24 08:00:15;;;;;;;1999.90;999.90;;;3.40;99.90;;;;;;5009433;28;20461;-66
2023/01/24 08:02:42;;;;;;;1999.90;999.90;;;3.40;99.90;;;;;;5009682;28;20803;-66
2023/01/24 08:05:09;;;;;;;1999.90;999.90;;;3.40;99.90;;;;;;5009475;28;21157;-65
2023/01/24 08:07:36;;;;;;;1999.90;999.90;;;3.40;99.90;;;;;;5009137;28;20446;-65
2023/01/24 08:10:03;;;;;;;1999.90;999.90;;;3.40;99.90;;;;;;5005734;28;20462;-65
2023/01/24 08:12:29;;;;;;;1999.90;999.90;;;3.40;99.90;;;;;;5008682;28;21100;-66
2023/01/24 08:14:56;;;;;;;1999.90;999.90;;;3.40;99.90;;;;;;5008935;28;20863;-66
2023/01/24 08:17:24;;;;;;;1999.90;999.90;;;3.50;99.90;;;;;;5009687;28;21088;-67
2023/01/24 08:19:51;;;;;;;1999.90;999.90;;;3.50;99.90;;;;;;5005450;28;20453;-64
2023/01/24 08:22:18;;;;;;;1999.90;999.90;;;3.60;99.90;;;;;;5007775;28;20442;-66
2023/01/24 08:24:44;;;;;;;1999.90;999.90;;;3.60;99.90;;;;;;5008471;28;20465;-66
2023/01/24 08:27:12;;;;;;;1999.90;999.90;;;3.60;99.90;;;;;;5008209;28;20450;-66
2023/01/24 08:29:38;;;;;;;1999.90;999.90;;;3.60;99.90;;;;;;5009160;28;20448;-66
2023/01/24 08:32:05;;;;;;;1999.90;999.90;;;3.60;99.90;;;;;;5008002;28;20454;-66
2023/01/24 08:34:33;;;;;;;1999.90;999.90;;;3.60;99.90;;;;;;5008474;28;20569;-67
2023/01/24 08:37:00;;;;;;;1999.90;999.90;;;3.60;99.90;;;;;;5009460;28;20458;-67
2023/01/24 08:39:27;;;;;;;1999.90;999.90;;;3.60;99.90;;;;;;5009547;28;20819;-66
2023/01/24 08:41:54;;;;;;;1999.90;999.90;;;3.70;99.90;;;;;;5009197;28;20445;-66
2023/01/24 08:44:20;;;;;;;1999.90;999.90;;;3.80;99.90;;;;;;5009180;28;20474;-67
2023/01/24 08:46:47;;;;;;;1999.90;999.90;;;3.80;99.90;;;;;;5009672;28;20460;-66
2023/01/24 08:49:14;;;;;;;1999.90;999.90;;;3.80;99.90;;;;;;5008974;28;20446;-66
2023/01/24 08:51:42;;;;;;;1999.90;999.90;;;3.80;99.90;;;;;;5009159;28;20453;-63
2023/01/24 08:54:09;;;;;;;1999.90;999.90;;;3.80;99.90;;;;;;5008331;28;20474;-66
2023/01/24 08:56:35;;;;;;;1999.90;999.90;;;3.90;99.90;;;;;;5007693;28;20830;-66
2023/01/24 08:59:02;;;;;;;1999.90;999.90;;;3.80;99.90;;;;;;5008728;28;20441;-65
2023/01/24 09:01:29;;;;;;;1999.90;999.90;;;3.90;99.90;;;;;;5007503;28;20446;-67
2023/01/24 09:03:56;;;;;;;1999.90;999.90;;;3.90;99.90;;;;;;5007621;28;20569;-66
2023/01/24 09:06:24;;;;;;;1999.90;999.90;;;3.90;99.90;;;;;;5008679;28;20468;-65
2023/01/24 09:08:54;;;;;;;1999.90;999.90;;;3.90;99.90;;;;;;5009071;28;20466;-65
2023/01/24 09:11:21;;;;;;;1999.90;999.90;;;3.80;99.90;;;;;;5007361;28;20458;-67
2023/01/24 09:13:48;;;;;;;1999.90;999.90;;;3.90;99.90;;;;;;5007860;28;20468;-66
2023/01/24 09:16:15;;;;;;;1999.90;999.90;;;3.90;99.90;;;;;;5008111;28;20484;-66
2023/01/24 09:18:41;;;;;;;1999.90;999.90;;;4.00;99.90;;;;;;5008623;28;20453;-66
2023/01/24 09:21:08;;;;;;;1999.90;999.90;;;4.00;99.90;;;;;;5006193;28;20457;-66
2023/01/24 09:23:35;;;;;;;1999.90;999.90;;;4.00;99.90;;;;;;5007814;28;20529;-66
2023/01/24 09:26:04;;;;;;;1999.90;999.90;;;4.00;99.90;;;;;;5007774;28;20441;-66
2023/01/24 09:28:30;;;;;;;1999.90;999.90;;;4.00;99.90;;;;;;5008635;28;20446;-66
2023/01/24 09:30:57;;;;;;;1999.90;999.90;;;4.00;99.90;;;;;;5008349;28;20445;-65
2023/01/24 09:33:24;;;;;;;1999.90;999.90;;;4.00;99.90;;;;;;5008184;28;20473;-66
2023/01/24 09:35:55;;;;;;;1999.90;999.90;;;4.00;99.90;;;;;;5008007;28;20998;-66
2023/01/24 09:38:22;;;;;;;1999.90;999.90;;;4.10;99.90;;;;;;5008274;28;20462;-67
2023/01/24 09:40:57;;;;;;;1999.90;999.90;;;4.20;99.90;;;;;;5003992;28;20462;-67
2023/01/24 09:43:41;;;;;;;1999.90;999.90;;;4.20;99.90;;;;;;5006777;28;20448;-66
2023/01/24 09:46:16;;;;;;;1999.90;999.90;;;4.30;99.90;;;;;;5006198;28;20442;-67
2023/01/24 09:48:44;;;;;;;1999.90;999.90;;;4.20;99.90;;;;;;5007916;28;21014;-66
2023/01/24 09:51:17;;;;;;;1999.90;999.90;;;4.30;99.90;;;;;;5008196;28;20466;-67
2023/01/24 09:53:46;;;;;;;1999.90;999.90;;;4.40;99.90;;;;;;5007994;28;20466;-67
2023/01/24 09:56:26;;;;;;;1999.90;999.90;;;4.40;99.90;;;;;;5007850;28;20489;-66
2023/01/24 09:59:11;;;;;;;1999.90;999.90;;;4.40;99.90;;;;;;5008168;28;20438;-67
2023/01/24 10:01:41;;;;;;;1999.90;999.90;;;4.50;99.90;;;;;;5007656;28;20461;-66
2023/01/24 10:04:21;;;;;;;1999.90;999.90;;;4.50;99.90;;;;;;5007832;28;20462;-66
2023/01/24 10:07:08;;;;;;;1999.90;999.90;;;4.50;99.90;;;;;;5007919;28;20449;-66
2023/01/24 10:09:47;;;;;;;1999.90;999.90;;;4.60;99.90;;;;;;5008202;28;20449;-66
2023/01/24 10:12:25;;;;;;;1999.90;999.90;;;4.60;99.90;;;;;;5009934;28;21170;-66
2023/01/24 10:15:08;;;;;;;1999.90;999.90;;;4.70;99.90;;;;;;5011390;28;20504;-66
2023/01/24 10:18:09;;;;;;;1999.90;999.90;;;4.80;99.90;;;;;;5011325;28;21077;-66
2023/01/24 10:20:57;;;;;;;1999.90;999.90;;;4.80;99.90;;;;;;5001265;28;20453;-67
2023/01/24 10:23:27;;;;;;;1999.90;999.90;;;4.90;99.90;;;;;;5011100;28;20442;-66
2023/01/24 10:25:56;;;;;;;1999.90;999.90;;;5.00;99.90;;;;;;5011879;28;20446;-67
2023/01/24 10:28:26;;;;;;;1999.90;999.90;;;5.20;99.90;;;;;;5012555;28;20449;-66
2023/01/24 10:30:59;;;;;;;1999.90;999.90;;;5.20;99.90;;;;;;5012274;28;20441;-68
2023/01/24 10:33:31;;;;;;;1999.90;999.90;;;5.20;99.90;;;;;;5006802;28;20441;-66
2023/01/24 10:36:05;;;;;;;1999.90;999.90;;;5.00;99.90;;;;;;5011964;28;20473;-66
2023/01/24 10:38:33;;;;;;;1999.90;999.90;;;4.80;99.90;;;;;;5012059;28;20452;-66
2023/01/24 10:41:15;;;;;;;1999.90;999.90;;;4.60;99.90;;;;;;5012446;28;20460;-66
2023/01/24 10:43:45;;;;;;;1999.90;999.90;;;4.60;99.90;;;;;;5012188;28;20465;-67
2023/01/24 10:46:43;;;;;;;1999.90;999.90;;;4.60;99.90;;;;;;5012249;28;20453;-67
2023/01/24 10:49:17;;;;;;;1999.90;999.90;;;4.60;99.90;;;;;;5011270;28;20512;-67
2023/01/24 10:51:47;;;;;;;1999.90;999.90;;;4.80;99.90;;;;;;5012525;28;20441;-67
2023/01/24 10:54:22;;;;;;;1999.90;999.90;;;4.90;99.90;;;;;;5011783;28;21002;-66
2023/01/24 10:56:49;;;;;;;1999.90;999.90;;;5.10;99.90;;;;;;5012074;28;20838;-66
2023/01/24 10:59:17;;;;;;;1999.90;999.90;;;5.20;99.90;;;;;;5012090;28;20446;-65
2023/01/24 11:01:48;;;;;;;1999.90;999.90;;;5.30;99.90;;;;;;5012118;28;20442;-66
2023/01/24 11:04:21;;;;;;;1999.90;999.90;;;5.30;99.90;;;;;;5011531;28;21067;-67
2023/01/24 11:06:48;;;;;;;1999.90;999.90;;;5.10;99.90;;;;;;5012033;28;20815;-66
2023/01/24 11:09:19;;;;;;;1999.90;999.90;;;5.00;99.90;;;;;;5011630;28;20454;-66
2023/01/24 11:11:49;;;;;;;1999.90;999.90;;;4.90;99.90;;;;;;5011409;28;21195;-65
2023/01/24 11:14:20;;;;;;;1999.90;999.90;;;4.90;99.90;;;;;;5011262;28;20565;-63
2023/01/24 11:16:51;;;;;;;1999.90;999.90;;;4.90;99.90;;;;;;5011369;28;20485;-66
2023/01/24 11:19:28;;;;;;;1999.90;999.90;;;4.80;99.90;;;;;;5011491;28;20453;-66
2023/01/24 11:21:57;;;;;;;1999.90;999.90;;;4.70;99.90;;;;;;5011294;28;20460;-66
2023/01/24 11:24:24;;;;;;;1999.90;999.90;;;4.60;99.90;;;;;;5010692;28;20476;-66
2023/01/24 11:26:55;;;;;;;1999.90;999.90;;;4.60;99.90;;;;;;5011266;28;20437;-67
2023/01/24 11:29:22;;;;;;;1999.90;999.90;;;4.60;99.90;;;;;;5011409;28;20449;-65
2023/01/24 11:31:53;;;;;;;1999.90;999.90;;;4.70;99.90;;;;;;5011217;28;20520;-66
2023/01/24 11:34:45;;;;;;;1999.90;999.90;;;4.60;99.90;;;;;;5010952;28;20478;-67
2023/01/24 11:37:55;;;;;;;1999.90;999.90;;;4.60;99.90;;;;;;5011385;28;20490;-67
2023/01/24 11:40:30;;;;;;;1999.90;999.90;;;4.50;99.90;;;;;;5011286;28;20453;-66
2023/01/24 11:43:13;;;;;;;1999.90;999.90;;;4.60;99.90;;;;;;5010655;28;20437;-67
2023/01/24 11:45:56;;;;;;;1999.90;999.90;;;4.60;99.90;;;;;;5011071;28;20470;-66
2023/01/24 11:48:31;;;;;;;1999.90;999.90;;;4.80;99.90;;;;;;5011085;28;20476;-67
2023/01/24 11:51:08;;;;;;;1999.90;999.90;;;4.80;99.90;;;;;;5011008;28;20446;-67
2023/01/24 11:53:53;;;;;;;1999.90;999.90;;;4.70;99.90;;;;;;5010300;28;21253;-65
2023/01/24 11:56:28;;;;;;;1999.90;999.90;;;4.70;99.90;;;;;;5010739;28;20486;-67
2023/01/24 11:59:18;;;;;;;1999.90;999.90;;;4.60;99.90;;;;;;5010784;28;20455;-66
2023/01/24 12:01:53;;;;;;;1999.90;999.90;;;4.60;99.90;;;;;;5010479;28;20460;-67
2023/01/24 12:04:52;;;;;;;1999.90;999.90;;;4.60;99.90;;;;;;5010309;28;20505;-68
2023/01/24 12:07:26;;;;;;;1999.90;999.90;;;4.60;99.90;;;;;;5010659;28;20438;-67
2023/01/24 12:10:01;;;;;;;1999.90;999.90;;;4.60;99.90;;;;;;5010801;28;20521;-66
2023/01/24 12:12:38;;;;;;;1999.90;999.90;;;4.70;99.90;;;;;;5010379;28;20461;-67
2023/01/24 12:15:29;;;;;;;1999.90;999.90;;;4.70;99.90;;;;;;5010425;28;20569;-67
2023/01/24 12:18:22;;;;;;;1999.90;999.90;;;4.80;99.90;;;;;;5010392;28;20450;-65
2023/01/24 12:21:01;;;;;;;1999.90;999.90;;;4.70;99.90;;;;;;5010428;28;20560;-67
2023/01/24 12:23:34;;;;;;;1999.90;999.90;;;4.80;99.90;;;;;;5010120;28;20473;-68
2023/01/24 12:26:06;;;;;;;1999.90;999.90;;;4.80;99.90;;;;;;5010218;28;20943;-67
2023/01/24 12:28:40;;;;;;;1999.90;999.90;;;4.80;99.90;;;;;;5010441;28;20453;-67
2023/01/24 12:31:08;;;;;;;1999.90;999.90;;;4.70;99.90;;;;;;5010134;28;20450;-67
2023/01/24 12:33:41;;;;;;;1999.90;999.90;;;4.80;99.90;;;;;;5009585;28;20437;-67
2023/01/24 12:36:14;;;;;;;1999.90;999.90;;;4.70;99.90;;;;;;5009979;28;21181;-67
2023/01/24 12:38:45;;;;;;;1999.90;999.90;;;4.80;99.90;;;;;;5010059;28;20853;-66
2023/01/24 12:41:21;;;;;;;1999.90;999.90;;;4.80;99.90;;;;;;5009235;28;20449;-66
2023/01/24 12:43:58;;;;;;;1999.90;999.90;;;4.70;99.90;;;;;;4988828;28;20462;-65
2023/01/24 12:46:31;;;;;;;1999.90;999.90;;;4.70;99.90;;;;;;4990270;28;20447;-66
2023/01/24 12:49:09;;;;;;;1999.90;999.90;;;4.60;99.90;;;;;;4990665;28;20458;-67
2023/01/24 12:51:42;;;;;;;1999.90;999.90;;;4.60;99.90;;;;;;4990055;28;20450;-67
2023/01/24 12:54:14;;;;;;;1999.90;999.90;;;4.60;99.90;;;;;;4990431;28;20477;-68
2023/01/24 12:56:50;;;;;;;1999.90;999.90;;;4.60;99.90;;;;;;4990474;28;20486;-68